Cochise — WDD8952 — position and weather

sailwx.info

Track history (hours):
 
Tides and Currents Weather Stations Pressure Air Temp Water Temp Dewpoint Dewpoint Depression Visibility Wind Speed Wind Dir Waves Ship Positions

Cochise

Owner: Sause Bros, Coos Bay, OR. More information available from US FCC via Universal Licensing System and Coast Guard Vessel Documentation Center.

Last reported at 2018-Jul-16 22:13 UTC. Time now 2018-Jul-19 05:53 UTC.
Position N 38°21' W 123°30'.

Length 38 m; draft 4.6 m.

Type: Towing. MMSI: 367304990.

Date/timePositionNaut miles runAvg speedWind from/ knotsBaromVisibWave heightAir tempDewpointWater temp
2018-Jul-16 22:13N 38°21' W 123°30'2 8.6
2018-Jul-16 21:58N 38°19' W 123°29'5 8.7
2018-Jul-16 21:21N 38°15' W 123°25'3 9.3
2018-Jul-16 21:00N 38°12' W 123°22'44 9.6
2018-Jul-16 16:29N 37°46' W 122°38'511.0
2018-Jul-16 16:00N 37°48' W 122°32'612.0
2018-Jul-16 15:30N 37°50' W 122°25'4 7.9
2018-Jul-16 14:58N 37°55' W 122°26'1 2.3
2018-Jul-16 14:30N 37°56' W 122°27'912.1
2018-Jul-16 13:45N 38°03' W 122°20'311.6
2018-Jul-16 13:29N 38°04' W 122°16'8 8.7
2018-Jul-16 12:35N 38°03' W 122°06'0 0.1
2018-Jul-16 12:29N 38°03' W 122°06'0 0.0
2018-Jul-15 19:57N 38°03' W 122°06'12 5.4
2018-Jul-15 17:39N 38°02' W 122°22'2 7.6
2018-Jul-15 17:27N 38°01' W 122°23'4 7.7
2018-Jul-15 16:55N 37°58' W 122°26'2 5.8
2018-Jul-15 16:30N 37°55' W 122°25'0 0.1
2018-Jul-15 16:00N 37°55' W 122°25'0 0.2
2018-Jul-15 15:28N 37°55' W 122°25'0 0.0
2018-Jul-15 14:58N 37°55' W 122°25'0 0.0
2018-Jul-15 14:25N 37°55' W 122°25'0 0.0
2018-Jul-15 13:58N 37°55' W 122°25'0 0.0
2018-Jul-15 13:25N 37°55' W 122°25'0 0.0
2018-Jul-15 12:58N 37°55' W 122°25'0 0.0
2018-Jul-15 12:28N 37°55' W 122°25'0 0.0
2018-Jul-15 11:58N 37°55' W 122°25'0 0.0
2018-Jul-15 11:28N 37°55' W 122°25'0 0.0
2018-Jul-15 10:58N 37°55' W 122°25'0 0.0
2018-Jul-15 10:19N 37°55' W 122°25'0 0.0
2018-Jul-15 09:52N 37°55' W 122°25'0 0.0
2018-Jul-15 09:28N 37°55' W 122°25'0 0.0
2018-Jul-15 08:58N 37°55' W 122°25'0 0.0
2018-Jul-15 08:28N 37°55' W 122°25'0 0.0
2018-Jul-15 07:55N 37°55' W 122°25'0 0.0
2018-Jul-15 07:25N 37°55' W 122°25'0 0.0
2018-Jul-15 06:58N 37°55' W 122°25'0 0.0
2018-Jul-15 06:28N 37°55' W 122°25'0 0.0
2018-Jul-15 05:58N 37°55' W 122°25'0 0.0
2018-Jul-15 05:28N 37°55' W 122°25'0 0.0
2018-Jul-15 04:58N 37°55' W 122°25'0 0.0
2018-Jul-15 04:28N 37°55' W 122°25'0 0.0
2018-Jul-15 03:55N 37°55' W 122°25'0 0.0
2018-Jul-15 03:25N 37°55' W 122°25'0 0.0
2018-Jul-15 02:58N 37°55' W 122°25'0 0.0
2018-Jul-15 02:28N 37°55' W 122°25'0 0.0
2018-Jul-15 02:00N 37°55' W 122°25'0 0.2
2018-Jul-15 01:30N 37°55' W 122°25'0 0.7
2018-Jul-15 01:00N 37°55' W 122°25'1 1.9
2018-Jul-15 00:30N 37°55' W 122°26'0 0.0
2018-Jul-14 23:58N 37°55' W 122°26'0 0.0
2018-Jul-14 23:13N 37°55' W 122°26'0 0.2
2018-Jul-14 22:58N 37°55' W 122°26'0 0.0
2018-Jul-14 22:25N 37°55' W 122°26'0 0.0
2018-Jul-14 21:52N 37°55' W 122°26'0 0.0
2018-Jul-14 21:28N 37°55' W 122°26'0 0.0
2018-Jul-14 20:52N 37°55' W 122°26'0 0.0
2018-Jul-14 20:25N 37°55' W 122°26'0 0.0
2018-Jul-14 19:55N 37°55' W 122°26'0 0.0
2018-Jul-14 19:28N 37°55' W 122°26'0 0.0
2018-Jul-14 18:52N 37°55' W 122°26'0 0.0
2018-Jul-14 18:28N 37°55' W 122°26'0 0.0
2018-Jul-14 17:43N 37°55' W 122°26'0 0.1
2018-Jul-14 17:22N 37°55' W 122°26'0 0.1
2018-Jul-14 16:58N 37°55' W 122°26'0 0.1
2018-Jul-14 16:25N 37°55' W 122°26'0 0.1
2018-Jul-14 15:58N 37°55' W 122°26'0 0.0
2018-Jul-14 15:28N 37°55' W 122°26'0 0.1
2018-Jul-14 14:58N 37°55' W 122°26'0 0.0
2018-Jul-14 14:28N 37°55' W 122°26'0 0.0
2018-Jul-14 13:28N 37°55' W 122°26'0 0.0
2018-Jul-14 12:58N 37°55' W 122°26'0 0.0
2018-Jul-14 12:28N 37°55' W 122°26'0 0.0
2018-Jul-14 11:58N 37°55' W 122°26'0 0.0
2018-Jul-14 11:28N 37°55' W 122°26'0 0.0
2018-Jul-14 10:58N 37°55' W 122°26'0 0.0
2018-Jul-14 10:25N 37°55' W 122°26'0 0.0
2018-Jul-14 09:58N 37°55' W 122°26'0 0.1
2018-Jul-14 09:28N 37°55' W 122°26'0 0.1
2018-Jul-14 08:55N 37°55' W 122°26'0 0.0
2018-Jul-14 08:28N 37°55' W 122°26'0 0.0
2018-Jul-14 07:58N 37°55' W 122°26'0 0.0
2018-Jul-14 07:28N 37°55' W 122°26'0 0.0
2018-Jul-14 06:58N 37°55' W 122°26'0 0.0
2018-Jul-14 06:28N 37°55' W 122°26'0 0.0
2018-Jul-14 05:58N 37°55' W 122°26'0 0.0
2018-Jul-14 05:28N 37°55' W 122°26'0 0.0
2018-Jul-14 04:58N 37°55' W 122°26'0 0.0
2018-Jul-14 04:28N 37°55' W 122°26'0 0.1
2018-Jul-14 03:52N 37°55' W 122°26'0 0.1
2018-Jul-14 03:25N 37°55' W 122°26'0 0.1
2018-Jul-14 02:58N 37°55' W 122°26'0 0.5
2018-Jul-14 02:30N 37°55' W 122°26'4 7.5
2018-Jul-14 02:00N 37°51' W 122°24'5 9.8
2018-Jul-14 01:30N 37°49' W 122°30'4 8.6
2018-Jul-14 01:00N 37°47' W 122°35'5 9.3
2018-Jul-14 00:30N 37°47' W 122°40'510.1
2018-Jul-14 00:00N 37°47' W 122°47'510.8
2018-Jul-13 23:30N 37°49' W 122°53'510.5
2018-Jul-13 23:00N 37°52' W 122°59'510.3
2018-Jul-13 22:30N 37°54' W 123°05'510.5
2018-Jul-13 22:00N 37°57' W 123°10'510.4
2018-Jul-13 21:30N 38°01' W 123°15'510.3
2018-Jul-13 21:00N 38°05' W 123°19'510.4
2018-Jul-13 20:30N 38°09' W 123°23'610.3
2018-Jul-13 19:57N 38°14' W 123°27'510.3
2018-Jul-13 19:30N 38°18' W 123°30'611.0
2018-Jul-13 19:00N 38°22' W 123°33'610.9
2018-Jul-13 18:30N 38°27' W 123°37'711.0
2018-Jul-13 17:51N 38°33' W 123°42'39810.4
2018-Jul-12 03:28N 45°09' W 124°22'13 9.1
2018-Jul-12 02:01N 45°22' W 124°20'111.3
2018-Jul-12 01:53N 45°24' W 124°19'611.4
2018-Jul-12 01:22N 45°30' W 124°18'411.1
2018-Jul-12 01:00N 45°34' W 124°17'611.3
2018-Jul-12 00:30N 45°39' W 124°16'611.3
2018-Jul-12 00:00N 45°45' W 124°16'510.7
2018-Jul-11 23:30N 45°50' W 124°14'510.9
2018-Jul-11 23:00N 45°55' W 124°12'611.3
2018-Jul-11 22:30N 46°01' W 124°09'611.6
2018-Jul-11 22:00N 46°06' W 124°07'612.0
2018-Jul-11 21:30N 46°12' W 124°06'4 9.0
2018-Jul-11 21:00N 46°15' W 124°02'510.2
2018-Jul-11 20:30N 46°12' W 123°56'5 9.6
2018-Jul-11 20:00N 46°12' W 123°49'5 9.8
2018-Jul-11 19:30N 46°14' W 123°43'5 9.4
2018-Jul-11 19:00N 46°15' W 123°36'510.1
2018-Jul-11 18:31N 46°16' W 123°29'510.3
2018-Jul-11 18:00N 46°12' W 123°26'511.1
2018-Jul-11 17:30N 46°09' W 123°19'613.0
2018-Jul-11 17:00N 46°11' W 123°11'612.6
2018-Jul-11 16:30N 46°09' W 123°02'613.0
2018-Jul-11 16:00N 46°05' W 122°55'612.5
2018-Jul-11 15:30N 45°59' W 122°51'612.2
2018-Jul-11 15:00N 45°54' W 122°48'612.1
2018-Jul-11 14:30N 45°47' W 122°47'612.0
2018-Jul-11 13:59N 45°41' W 122°47'510.4
2018-Jul-11 13:30N 45°36' W 122°47'3 6.0
2018-Jul-11 13:00N 45°34' W 122°44'0 0.1
2018-Jul-11 12:05N 45°34' W 122°44'0 0.0
2018-Jul-11 11:41N 45°34' W 122°44'0 0.0
2018-Jul-11 11:29N 45°34' W 122°44'0 0.0
2018-Jul-11 10:08N 45°34' W 122°44'0 0.3
2018-Jul-11 09:59N 45°34' W 122°44'0 0.0
2018-Jul-11 09:20N 45°34' W 122°44'0 0.0
2018-Jul-11 08:59N 45°34' W 122°44'0 0.0
2018-Jul-11 08:23N 45°34' W 122°44'0 0.0
2018-Jul-11 07:56N 45°34' W 122°44'0 0.0
2018-Jul-11 07:26N 45°34' W 122°44'0 0.0
2018-Jul-11 06:59N 45°34' W 122°44'0 0.0
2018-Jul-11 06:20N 45°34' W 122°44'0 0.0
2018-Jul-11 05:59N 45°34' W 122°44'0 0.1
2018-Jul-11 05:26N 45°34' W 122°44'0 0.1
2018-Jul-11 04:38N 45°34' W 122°44'0 0.3
2018-Jul-11 04:29N 45°34' W 122°44'0 0.1
2018-Jul-11 03:59N 45°34' W 122°44'0 0.0
2018-Jul-11 03:26N 45°34' W 122°44'0 0.0
2018-Jul-11 02:56N 45°34' W 122°44'0 0.0
2018-Jul-11 02:05N 45°34' W 122°44'0 0.0
2018-Jul-11 01:56N 45°34' W 122°44'0 0.0
2018-Jul-11 01:29N 45°34' W 122°44'0 0.0
2018-Jul-11 00:50N 45°34' W 122°44'0 0.1
2018-Jul-11 00:26N 45°34' W 122°44'0 0.1
2018-Jul-11 00:00N 45°34' W 122°44'1 1.6
2018-Jul-10 23:30N 45°35' W 122°45'3 6.9
2018-Jul-10 23:00N 45°38' W 122°47'5 9.3
2018-Jul-10 22:30N 45°42' W 122°46'5 9.3
2018-Jul-10 22:00N 45°47' W 122°46'4 9.0
2018-Jul-10 21:30N 45°51' W 122°47'5 9.3
2018-Jul-10 21:01N 45°56' W 122°48'5 9.3
2018-Jul-10 20:30N 46°00' W 122°51'5 9.2
2018-Jul-10 20:00N 46°04' W 122°53'5 9.3
2018-Jul-10 19:30N 46°07' W 122°59'5 9.3
2018-Jul-10 19:00N 46°10' W 123°05'4 8.8
2018-Jul-10 18:30N 46°11' W 123°10'5 9.4
2018-Jul-10 18:00N 46°09' W 123°16'5 9.2
2018-Jul-10 17:29N 46°09' W 123°23'4 8.5
2018-Jul-10 17:00N 46°13' W 123°25'6 7.5
2018-Jul-10 16:12N 46°15' W 123°33'2 9.9
2018-Jul-10 16:00N 46°15' W 123°36'5 9.5
2018-Jul-10 15:30N 46°14' W 123°43'510.0
2018-Jul-10 15:00N 46°12' W 123°49'5 9.0
2018-Jul-10 14:30N 46°12' W 123°56'4 7.8
2018-Jul-10 14:01N 46°14' W 123°60'4 7.9
2018-Jul-10 13:31N 46°15' W 124°05'5 9.1
2018-Jul-10 13:00N 46°11' W 124°09'510.2
2018-Jul-10 12:30N 46°07' W 124°13'510.1
2018-Jul-10 12:00N 46°03' W 124°17'4 7.9
2018-Jul-10 11:30N 45°59' W 124°20'4 7.3
2018-Jul-10 11:00N 45°56' W 124°22'4 7.4
2018-Jul-10 10:30N 45°52' W 124°23'8 7.0
2018-Jul-10 09:25N 45°45' W 124°26'3 6.9
2018-Jul-10 08:59N 45°42' W 124°28'3 7.1
2018-Jul-10 08:30N 45°39' W 124°29'7 7.1
2018-Jul-10 07:33N 45°32' W 124°32'1 7.0
2018-Jul-10 07:24N 45°31' W 124°32'4 7.1
2018-Jul-10 06:49N 45°27' W 124°34'  
Track history (hours):
 
Tides and Currents Weather Stations Pressure Air Temp Water Temp Dewpoint Dewpoint Depression Visibility Wind Speed Wind Dir Waves Ship Positions

Cochise

Owner: Sause Bros, Coos Bay, OR. More information available from US FCC via Universal Licensing System and Coast Guard Vessel Documentation Center.

Last reported at 2018-Jul-16 22:13 UTC. Time now 2018-Jul-19 05:53 UTC.
Position N 38°21' W 123°30'.

Length 38 m; draft 4.6 m.

Type: Towing. MMSI: 367304990.

Date/timePositionNaut miles runAvg speedWind from/ knotsBaromVisibWave heightAir tempDewpointWater temp
2018-Jul-16 22:13N 38°21' W 123°30'2 8.6
2018-Jul-16 21:58N 38°19' W 123°29'5 8.7
2018-Jul-16 21:21N 38°15' W 123°25'3 9.3
2018-Jul-16 21:00N 38°12' W 123°22'44 9.6
2018-Jul-16 16:29N 37°46' W 122°38'511.0
2018-Jul-16 16:00N 37°48' W 122°32'612.0
2018-Jul-16 15:30N 37°50' W 122°25'4 7.9
2018-Jul-16 14:58N 37°55' W 122°26'1 2.3
2018-Jul-16 14:30N 37°56' W 122°27'912.1
2018-Jul-16 13:45N 38°03' W 122°20'311.6
2018-Jul-16 13:29N 38°04' W 122°16'8 8.7
2018-Jul-16 12:35N 38°03' W 122°06'0 0.1
2018-Jul-16 12:29N 38°03' W 122°06'0 0.0
2018-Jul-15 19:57N 38°03' W 122°06'12 5.4
2018-Jul-15 17:39N 38°02' W 122°22'2 7.6
2018-Jul-15 17:27N 38°01' W 122°23'4 7.7
2018-Jul-15 16:55N 37°58' W 122°26'2 5.8
2018-Jul-15 16:30N 37°55' W 122°25'0 0.1
2018-Jul-15 16:00N 37°55' W 122°25'0 0.2
2018-Jul-15 15:28N 37°55' W 122°25'0 0.0
2018-Jul-15 14:58N 37°55' W 122°25'0 0.0
2018-Jul-15 14:25N 37°55' W 122°25'0 0.0
2018-Jul-15 13:58N 37°55' W 122°25'0 0.0
2018-Jul-15 13:25N 37°55' W 122°25'0 0.0
2018-Jul-15 12:58N 37°55' W 122°25'0 0.0
2018-Jul-15 12:28N 37°55' W 122°25'0 0.0
2018-Jul-15 11:58N 37°55' W 122°25'0 0.0
2018-Jul-15 11:28N 37°55' W 122°25'0 0.0
2018-Jul-15 10:58N 37°55' W 122°25'0 0.0
2018-Jul-15 10:19N 37°55' W 122°25'0 0.0
2018-Jul-15 09:52N 37°55' W 122°25'0 0.0
2018-Jul-15 09:28N 37°55' W 122°25'0 0.0
2018-Jul-15 08:58N 37°55' W 122°25'0 0.0
2018-Jul-15 08:28N 37°55' W 122°25'0 0.0
2018-Jul-15 07:55N 37°55' W 122°25'0 0.0
2018-Jul-15 07:25N 37°55' W 122°25'0 0.0
2018-Jul-15 06:58N 37°55' W 122°25'0 0.0
2018-Jul-15 06:28N 37°55' W 122°25'0 0.0
2018-Jul-15 05:58N 37°55' W 122°25'0 0.0
2018-Jul-15 05:28N 37°55' W 122°25'0 0.0
2018-Jul-15 04:58N 37°55' W 122°25'0 0.0
2018-Jul-15 04:28N 37°55' W 122°25'0 0.0
2018-Jul-15 03:55N 37°55' W 122°25'0 0.0
2018-Jul-15 03:25N 37°55' W 122°25'0 0.0
2018-Jul-15 02:58N 37°55' W 122°25'0 0.0
2018-Jul-15 02:28N 37°55' W 122°25'0 0.0
2018-Jul-15 02:00N 37°55' W 122°25'0 0.2
2018-Jul-15 01:30N 37°55' W 122°25'0 0.7
2018-Jul-15 01:00N 37°55' W 122°25'1 1.9
2018-Jul-15 00:30N 37°55' W 122°26'0 0.0
2018-Jul-14 23:58N 37°55' W 122°26'0 0.0
2018-Jul-14 23:13N 37°55' W 122°26'0 0.2
2018-Jul-14 22:58N 37°55' W 122°26'0 0.0
2018-Jul-14 22:25N 37°55' W 122°26'0 0.0
2018-Jul-14 21:52N 37°55' W 122°26'0 0.0
2018-Jul-14 21:28N 37°55' W 122°26'0 0.0
2018-Jul-14 20:52N 37°55' W 122°26'0 0.0
2018-Jul-14 20:25N 37°55' W 122°26'0 0.0
2018-Jul-14 19:55N 37°55' W 122°26'0 0.0
2018-Jul-14 19:28N 37°55' W 122°26'0 0.0
2018-Jul-14 18:52N 37°55' W 122°26'0 0.0
2018-Jul-14 18:28N 37°55' W 122°26'0 0.0
2018-Jul-14 17:43N 37°55' W 122°26'0 0.1
2018-Jul-14 17:22N 37°55' W 122°26'0 0.1
2018-Jul-14 16:58N 37°55' W 122°26'0 0.1
2018-Jul-14 16:25N 37°55' W 122°26'0 0.1
2018-Jul-14 15:58N 37°55' W 122°26'0 0.0
2018-Jul-14 15:28N 37°55' W 122°26'0 0.1
2018-Jul-14 14:58N 37°55' W 122°26'0 0.0
2018-Jul-14 14:28N 37°55' W 122°26'0 0.0
2018-Jul-14 13:28N 37°55' W 122°26'0 0.0
2018-Jul-14 12:58N 37°55' W 122°26'0 0.0
2018-Jul-14 12:28N 37°55' W 122°26'0 0.0
2018-Jul-14 11:58N 37°55' W 122°26'0 0.0
2018-Jul-14 11:28N 37°55' W 122°26'0 0.0
2018-Jul-14 10:58N 37°55' W 122°26'0 0.0
2018-Jul-14 10:25N 37°55' W 122°26'0 0.0
2018-Jul-14 09:58N 37°55' W 122°26'0 0.1
2018-Jul-14 09:28N 37°55' W 122°26'0 0.1
2018-Jul-14 08:55N 37°55' W 122°26'0 0.0
2018-Jul-14 08:28N 37°55' W 122°26'0 0.0
2018-Jul-14 07:58N 37°55' W 122°26'0 0.0
2018-Jul-14 07:28N 37°55' W 122°26'0 0.0
2018-Jul-14 06:58N 37°55' W 122°26'0 0.0
2018-Jul-14 06:28N 37°55' W 122°26'0 0.0
2018-Jul-14 05:58N 37°55' W 122°26'0 0.0
2018-Jul-14 05:28N 37°55' W 122°26'0 0.0
2018-Jul-14 04:58N 37°55' W 122°26'0 0.0
2018-Jul-14 04:28N 37°55' W 122°26'0 0.1
2018-Jul-14 03:52N 37°55' W 122°26'0 0.1
2018-Jul-14 03:25N 37°55' W 122°26'0 0.1
2018-Jul-14 02:58N 37°55' W 122°26'0 0.5
2018-Jul-14 02:30N 37°55' W 122°26'4 7.5
2018-Jul-14 02:00N 37°51' W 122°24'5 9.8
2018-Jul-14 01:30N 37°49' W 122°30'4 8.6
2018-Jul-14 01:00N 37°47' W 122°35'5 9.3
2018-Jul-14 00:30N 37°47' W 122°40'510.1
2018-Jul-14 00:00N 37°47' W 122°47'510.8
2018-Jul-13 23:30N 37°49' W 122°53'510.5
2018-Jul-13 23:00N 37°52' W 122°59'510.3
2018-Jul-13 22:30N 37°54' W 123°05'510.5
2018-Jul-13 22:00N 37°57' W 123°10'510.4
2018-Jul-13 21:30N 38°01' W 123°15'510.3
2018-Jul-13 21:00N 38°05' W 123°19'510.4
2018-Jul-13 20:30N 38°09' W 123°23'610.3
2018-Jul-13 19:57N 38°14' W 123°27'510.3
2018-Jul-13 19:30N 38°18' W 123°30'611.0
2018-Jul-13 19:00N 38°22' W 123°33'610.9
2018-Jul-13 18:30N 38°27' W 123°37'711.0
2018-Jul-13 17:51N 38°33' W 123°42'39810.4
2018-Jul-12 03:28N 45°09' W 124°22'13 9.1
2018-Jul-12 02:01N 45°22' W 124°20'111.3
2018-Jul-12 01:53N 45°24' W 124°19'611.4
2018-Jul-12 01:22N 45°30' W 124°18'411.1
2018-Jul-12 01:00N 45°34' W 124°17'611.3
2018-Jul-12 00:30N 45°39' W 124°16'611.3
2018-Jul-12 00:00N 45°45' W 124°16'510.7
2018-Jul-11 23:30N 45°50' W 124°14'510.9
2018-Jul-11 23:00N 45°55' W 124°12'611.3
2018-Jul-11 22:30N 46°01' W 124°09'611.6
2018-Jul-11 22:00N 46°06' W 124°07'612.0
2018-Jul-11 21:30N 46°12' W 124°06'4 9.0
2018-Jul-11 21:00N 46°15' W 124°02'510.2
2018-Jul-11 20:30N 46°12' W 123°56'5 9.6
2018-Jul-11 20:00N 46°12' W 123°49'5 9.8
2018-Jul-11 19:30N 46°14' W 123°43'5 9.4
2018-Jul-11 19:00N 46°15' W 123°36'510.1
2018-Jul-11 18:31N 46°16' W 123°29'510.3
2018-Jul-11 18:00N 46°12' W 123°26'511.1
2018-Jul-11 17:30N 46°09' W 123°19'613.0
2018-Jul-11 17:00N 46°11' W 123°11'612.6
2018-Jul-11 16:30N 46°09' W 123°02'613.0
2018-Jul-11 16:00N 46°05' W 122°55'612.5
2018-Jul-11 15:30N 45°59' W 122°51'612.2
2018-Jul-11 15:00N 45°54' W 122°48'612.1
2018-Jul-11 14:30N 45°47' W 122°47'612.0
2018-Jul-11 13:59N 45°41' W 122°47'510.4
2018-Jul-11 13:30N 45°36' W 122°47'3 6.0
2018-Jul-11 13:00N 45°34' W 122°44'0 0.1
2018-Jul-11 12:05N 45°34' W 122°44'0 0.0
2018-Jul-11 11:41N 45°34' W 122°44'0 0.0
2018-Jul-11 11:29N 45°34' W 122°44'0 0.0
2018-Jul-11 10:08N 45°34' W 122°44'0 0.3
2018-Jul-11 09:59N 45°34' W 122°44'0 0.0
2018-Jul-11 09:20N 45°34' W 122°44'0 0.0
2018-Jul-11 08:59N 45°34' W 122°44'0 0.0
2018-Jul-11 08:23N 45°34' W 122°44'0 0.0
2018-Jul-11 07:56N 45°34' W 122°44'0 0.0
2018-Jul-11 07:26N 45°34' W 122°44'0 0.0
2018-Jul-11 06:59N 45°34' W 122°44'0 0.0
2018-Jul-11 06:20N 45°34' W 122°44'0 0.0
2018-Jul-11 05:59N 45°34' W 122°44'0 0.1
2018-Jul-11 05:26N 45°34' W 122°44'0 0.1
2018-Jul-11 04:38N 45°34' W 122°44'0 0.3
2018-Jul-11 04:29N 45°34' W 122°44'0 0.1
2018-Jul-11 03:59N 45°34' W 122°44'0 0.0
2018-Jul-11 03:26N 45°34' W 122°44'0 0.0
2018-Jul-11 02:56N 45°34' W 122°44'0 0.0
2018-Jul-11 02:05N 45°34' W 122°44'0 0.0
2018-Jul-11 01:56N 45°34' W 122°44'0 0.0
2018-Jul-11 01:29N 45°34' W 122°44'0 0.0
2018-Jul-11 00:50N 45°34' W 122°44'0 0.1
2018-Jul-11 00:26N 45°34' W 122°44'0 0.1
2018-Jul-11 00:00N 45°34' W 122°44'1 1.6
2018-Jul-10 23:30N 45°35' W 122°45'3 6.9
2018-Jul-10 23:00N 45°38' W 122°47'5 9.3
2018-Jul-10 22:30N 45°42' W 122°46'5 9.3
2018-Jul-10 22:00N 45°47' W 122°46'4 9.0
2018-Jul-10 21:30N 45°51' W 122°47'5 9.3
2018-Jul-10 21:01N 45°56' W 122°48'5 9.3
2018-Jul-10 20:30N 46°00' W 122°51'5 9.2
2018-Jul-10 20:00N 46°04' W 122°53'5 9.3
2018-Jul-10 19:30N 46°07' W 122°59'5 9.3
2018-Jul-10 19:00N 46°10' W 123°05'4 8.8
2018-Jul-10 18:30N 46°11' W 123°10'5 9.4
2018-Jul-10 18:00N 46°09' W 123°16'5 9.2
2018-Jul-10 17:29N 46°09' W 123°23'4 8.5
2018-Jul-10 17:00N 46°13' W 123°25'6 7.5
2018-Jul-10 16:12N 46°15' W 123°33'2 9.9
2018-Jul-10 16:00N 46°15' W 123°36'5 9.5
2018-Jul-10 15:30N 46°14' W 123°43'510.0
2018-Jul-10 15:00N 46°12' W 123°49'5 9.0
2018-Jul-10 14:30N 46°12' W 123°56'4 7.8
2018-Jul-10 14:01N 46°14' W 123°60'4 7.9
2018-Jul-10 13:31N 46°15' W 124°05'5 9.1
2018-Jul-10 13:00N 46°11' W 124°09'510.2
2018-Jul-10 12:30N 46°07' W 124°13'510.1
2018-Jul-10 12:00N 46°03' W 124°17'4 7.9
2018-Jul-10 11:30N 45°59' W 124°20'4 7.3
2018-Jul-10 11:00N 45°56' W 124°22'4 7.4
2018-Jul-10 10:30N 45°52' W 124°23'8 7.0
2018-Jul-10 09:25N 45°45' W 124°26'3 6.9
2018-Jul-10 08:59N 45°42' W 124°28'3 7.1
2018-Jul-10 08:30N 45°39' W 124°29'7 7.1
2018-Jul-10 07:33N 45°32' W 124°32'1 7.0
2018-Jul-10 07:24N 45°31' W 124°32'4 7.1
2018-Jul-10 06:49N 45°27' W 124°34'  

Dump ship's entire track history